Flight Track Log - Related Links

Times and Time Zones

All times are in EDT time to prevent confusion due to time zone crossing. See the GJS6221 flight status page for this flight to view local times or setup timezone preferences in your user account.

Time Position Orientation Groundspeed Altitude Reporting Facility
EDT Latitude Longitude Course Direction KTS MPH feet Rate Location/Type
Sat 07:17:55 AM 45.4667 -73.7167 207° Southwest 320 368 400  Level Montreal Center
Sat 07:18:55 AM 45.5000 -73.6667 46° Northeast 180 207 2,300 2,100 Climbing Montreal Center
Sat 07:19:55 AM 45.5167 -73.6000 70° East 220 253 4,600 2,300 Climbing Montreal Center
Sat 07:20:55 AM 45.4667 -73.5500 145° Southeast 280 322 6,900 2,550 Climbing Montreal Center
Sat 07:21:55 AM 45.4000 -73.6000 208° Southwest 290 334 9,700 2,450 Climbing Montreal Center
Sat 07:22:55 AM 45.3167 -73.6500 203° Southwest 320 368 11,800 2,000 Climbing Montreal Center
Sat 07:23:00 AM 44.9845 -74.0825 207° Southwest  Level FlightAware Approximate
Sat 07:23:55 AM 45.2333 -73.7333 215° Southwest 350 403 13,700  Level Montreal Center
Sat 07:24:55 AM 45.1333 -73.8000 205° Southwest 370 426 15,800 2,050 Climbing Montreal Center
Sat 07:25:55 AM 45.0500 -73.8833 215° Southwest 380 437 17,800 1,850 Climbing Montreal Center
Sat 07:26:55 AM 44.9500 -73.9333 199° South 380 437 19,500 1,850 Climbing Montreal Center
Sat 07:27:55 AM 44.8500 -74.0000 205° Southwest 380 437 21,500 1,871 Climbing Montreal Center
Sat 07:28:28 AM 44.8228 -74.0642 239° Southwest 384 442 22,400 1,532 Climbing Boston Center
Sat 07:29:29 AM 44.7239 -74.1317 206° Southwest 392 451 23,900 1,500 Climbing Boston Center
Sat 07:30:28 AM 44.6117 -74.1197 176° South 397 457 25,400 1,412 Climbing Boston Center
Sat 07:31:28 AM 44.4953 -74.1019 174° South 410 472 26,700 1,091 Climbing Boston Center
Sat 07:32:29 AM 44.3850 -74.0872 175° South 425 489 27,600 962 Climbing Boston Center
Sat 07:33:39 AM 44.2417 -74.0628 173° South 438 504 28,800 962 Climbing Boston Center
Sat 07:34:40 AM 44.1211 -74.0422 173° South 443 510 29,700 595 Climbing Boston Center
Sat 07:35:40 AM 43.9961 -74.0217 173° South 450 518 30,000 150 Climbing Boston Center
Sat 07:36:40 AM 43.8819 -73.9983 172° South 456 525 30,000  Level Boston Center
Sat 07:37:40 AM 43.7342 -73.9772 174° South 456 525 30,000  Level Boston Center
Sat 07:38:42 AM 43.6075 -73.9542 172° South 456 525 30,000 -49 Level Boston Center
Sat 07:39:42 AM 43.4828 -73.9336 173° South 461 531 29,900 -821 Descending Boston Center
Sat 07:40:39 AM 43.3558 -73.9136 173° South 461 531 28,400 -1,563 Descending Boston Center
Sat 07:41:41 AM 43.2331 -73.8906 172° South 461 531 26,800 -1,512 Descending Boston Center
Sat 07:42:42 AM 43.1125 -73.8678 172° South 456 525 25,300 -1,500 Descending Boston Center
Sat 07:43:41 AM 42.9939 -73.8481 173° South 446 513 23,800 -1,500 Descending Boston Center
Sat 07:44:42 AM 42.8775 -73.8283 173° South 435 501 22,300 -893 Descending Boston Center
Sat 07:45:42 AM 42.7631 -73.8089 173° South 429 494 22,000 -205 Descending Boston Center
Sat 07:46:39 AM 42.6489 -73.7867 172° South 422 486 21,900 -458 Descending Boston Center
Sat 07:47:40 AM 42.5489 -73.7703 173° South 422 486 21,100 -878 Descending Boston Center
Sat 07:48:42 AM 42.4389 -73.7456 171° South 416 479 20,100 -1,109 Descending Boston Center
Sat 07:49:39 AM 42.3142 -73.7119 169° South 410 472 18,900 -1,017 Descending Boston Center
Sat 07:50:40 AM 42.2142 -73.6986 174° South 410 472 18,100 -439 Descending Boston Center
Sat 07:51:42 AM 42.1081 -73.6769 171° South 404 465 18,000 -98 Descending Boston Center
Sat 07:52:42 AM 41.9897 -73.6467 169° South 404 465 17,900 -407 Descending Boston Center
Sat 07:53:40 AM 41.8939 -73.6281 172° South 404 465 17,200 -1,008 Descending Boston Center
Sat 07:54:41 AM 41.7756 -73.6036 171° South 394 453 15,900 -1,339 Descending Boston Center
Sat 07:55:41 AM 41.6858 -73.6131 184° South 380 437 14,500 -1,488 Descending Boston Center
Sat 07:56:42 AM 41.5872 -73.6669 202° Southwest 355 409 12,900 -1,603 Descending Boston Center
Sat 07:57:37 AM 41.5167 -73.7000 199° South 301 346 11,400 -1,651 Descending New York TRACON
Sat 07:58:31 AM 41.4500 -73.7500 209° Southwest 285 328 9,900 -1,200 Descending New York TRACON
Sat 07:59:37 AM 41.3667 -73.7833 197° South 278 320 9,000 -850 Descending New York TRACON
Sat 08:00:31 AM 41.3000 -73.7667 169° South 290 334 8,200 -1,211 Descending New York TRACON
Sat 08:01:31 AM 41.2333 -73.7000 143° Southeast 282 325 6,700 -1,500 Descending New York TRACON
Sat 08:02:31 AM 41.1500 -73.7000 180° South 266 306 5,200 -1,421 Descending New York TRACON
Sat 08:03:25 AM 41.1000 -73.6833 166° South 270 311 4,000 -632 Descending New York TRACON
Sat 08:04:25 AM 41.0167 -73.6667 171° South 271 312 4,000  Level New York TRACON
Sat 08:05:19 AM 40.9500 -73.6500 169° South 272 313 4,000 -316 Level New York TRACON
Sat 08:06:19 AM 40.8833 -73.6500 180° South 260 299 3,400 -800 Descending New York TRACON
Sat 08:07:19 AM 40.8167 -73.7000 210° Southwest 232 267 2,400 -737 Descending New York TRACON
Sat 08:08:13 AM 40.7833 -73.7333 217° Southwest 209 241 2,000 -526 Descending New York TRACON
Sat 08:09:13 AM 40.7500 -73.7833 229° Southwest 173 199 1,400 -650 Descending New York TRACON
Sat 08:10:13 AM 40.7500 -73.8333 270° West 134 154 700 -700 Descending New York TRACON
Sat 08:12:00 AM 40.7667 -73.8667 180° South  Level FlightAware Approximate
Sat 08:19:00 AM 40.7772 -73.8726 180° South  Level Estimated
Sat 08:20:00 AM 40.7772 -73.8726 180° South  Level Estimated

Login

Don't have an account? Register now (free) for customized features, flight alerts, and more!